createdAt,value
2022-08-27T00:00:09.757Z,99.90
2022-08-27T00:03:00.109Z,99.90
2022-08-27T00:05:29.681Z,99.90
2022-08-27T00:08:01.245Z,99.90
2022-08-27T00:10:30.890Z,99.90
2022-08-27T00:13:00.678Z,99.90
2022-08-27T00:15:30.458Z,99.90
2022-08-27T00:17:59.945Z,99.90
2022-08-27T00:20:29.953Z,99.90
2022-08-27T00:23:01.076Z,99.90
2022-08-27T00:25:31.185Z,99.90
2022-08-27T00:28:00.536Z,99.90
2022-08-27T00:30:30.106Z,99.90
2022-08-27T00:33:00.054Z,99.90
2022-08-27T00:35:29.671Z,99.90
2022-08-27T00:38:01.173Z,99.90
2022-08-27T00:40:31.457Z,99.90
2022-08-27T00:43:03.457Z,99.90
2022-08-27T00:45:39.221Z,99.90
2022-08-27T00:48:11.088Z,99.90
2022-08-27T00:50:45.530Z,99.90
2022-08-27T00:53:18.633Z,99.90
2022-08-27T00:55:52.844Z,99.90
2022-08-27T00:58:28.303Z,99.90
2022-08-27T01:00:58.794Z,99.90
2022-08-27T01:03:28.885Z,99.90
2022-08-27T01:06:02.369Z,99.90
2022-08-27T01:08:38.822Z,99.90
2022-08-27T01:11:09.049Z,99.90
2022-08-27T01:13:40.739Z,99.90
2022-08-27T01:16:35.260Z,99.90
2022-08-27T01:19:07.796Z,99.90
2022-08-27T01:21:43.032Z,99.90
2022-08-27T01:24:25.598Z,99.90
2022-08-27T01:26:56.682Z,99.90
2022-08-27T01:29:25.838Z,99.90
2022-08-27T01:31:59.313Z,99.90
2022-08-27T01:34:28.833Z,99.90
2022-08-27T01:36:58.920Z,99.90
2022-08-27T01:39:29.835Z,99.90
2022-08-27T01:42:06.481Z,99.90
2022-08-27T01:44:49.661Z,99.90
2022-08-27T01:47:21.194Z,99.90
2022-08-27T01:49:50.968Z,99.90
2022-08-27T01:52:21.469Z,99.90
2022-08-27T01:54:52.427Z,99.90
2022-08-27T01:57:26.033Z,99.90
2022-08-27T01:59:58.288Z,99.90
2022-08-27T02:02:29.047Z,99.90
2022-08-27T02:04:58.033Z,99.90
2022-08-27T02:07:27.496Z,99.90
2022-08-27T02:09:58.773Z,99.90
2022-08-27T02:12:28.130Z,99.90
2022-08-27T02:14:57.717Z,99.90
2022-08-27T02:17:27.341Z,99.90
2022-08-27T02:19:57.188Z,99.90
2022-08-27T02:22:26.958Z,99.90
2022-08-27T02:24:57.822Z,99.90
2022-08-27T02:27:27.284Z,99.90
2022-08-27T02:29:57.345Z,99.90
2022-08-27T02:32:32.163Z,99.90
2022-08-27T02:35:03.591Z,99.90
2022-08-27T02:37:33.225Z,99.90
2022-08-27T02:40:05.629Z,99.90
2022-08-27T02:42:35.085Z,99.90
2022-08-27T02:45:05.458Z,99.90
2022-08-27T02:47:35.438Z,99.90
2022-08-27T02:50:05.761Z,99.90
2022-08-27T02:52:36.920Z,99.90
2022-08-27T02:55:09.253Z,99.90
2022-08-27T02:57:39.764Z,99.90
2022-08-27T03:00:13.102Z,99.90
2022-08-27T03:02:43.277Z,99.90
2022-08-27T03:05:14.766Z,99.90
2022-08-27T03:07:45.177Z,99.90
2022-08-27T03:10:19.551Z,99.90
2022-08-27T03:12:49.574Z,99.90
2022-08-27T03:15:21.188Z,99.90
2022-08-27T03:18:08.074Z,99.90
2022-08-27T03:20:41.117Z,99.90
2022-08-27T03:23:11.958Z,99.90
2022-08-27T03:25:46.239Z,99.90
2022-08-27T03:28:23.230Z,99.90
2022-08-27T03:30:54.517Z,99.90
2022-08-27T03:33:24.230Z,99.90
2022-08-27T03:35:53.897Z,99.90
2022-08-27T03:38:23.497Z,99.90
2022-08-27T03:40:55.273Z,99.90
2022-08-27T03:43:25.542Z,99.90
2022-08-27T03:46:05.591Z,99.90
2022-08-27T03:48:35.636Z,99.90
2022-08-27T03:51:08.230Z,99.90
2022-08-27T03:53:38.301Z,99.90
2022-08-27T03:56:10.381Z,99.90
2022-08-27T03:58:40.469Z,99.90
2022-08-27T04:01:11.011Z,99.90
2022-08-27T04:03:40.423Z,99.90
2022-08-27T04:06:10.020Z,99.90
2022-08-27T04:08:39.978Z,99.90
2022-08-27T04:11:11.141Z,99.90
2022-08-27T04:13:41.606Z,99.90
2022-08-27T04:16:11.032Z,99.90
2022-08-27T04:18:40.690Z,99.90
2022-08-27T04:21:13.168Z,99.90
2022-08-27T04:23:44.466Z,99.90
2022-08-27T04:26:17.043Z,99.90
2022-08-27T04:28:48.842Z,99.90
2022-08-27T04:31:21.419Z,99.90
2022-08-27T04:33:51.497Z,99.90
2022-08-27T04:36:22.550Z,99.90
2022-08-27T04:38:52.014Z,99.90
2022-08-27T04:41:25.381Z,99.90
2022-08-27T04:43:57.320Z,99.90
2022-08-27T04:46:29.652Z,99.90
2022-08-27T04:49:00.488Z,99.90
2022-08-27T04:51:31.677Z,99.90
2022-08-27T04:54:01.193Z,99.90
2022-08-27T04:56:32.835Z,99.90
2022-08-27T04:59:04.387Z,99.90
2022-08-27T05:01:34.161Z,99.90
2022-08-27T05:04:03.654Z,99.90
2022-08-27T05:06:33.481Z,99.90
2022-08-27T05:09:03.083Z,99.90
2022-08-27T05:11:34.995Z,99.90
2022-08-27T05:14:05.947Z,99.90
2022-08-27T05:16:36.640Z,99.90
2022-08-27T05:19:09.333Z,99.90
2022-08-27T05:21:41.410Z,99.90
2022-08-27T05:24:11.365Z,99.90
2022-08-27T05:26:42.328Z,99.90
2022-08-27T05:29:12.235Z,99.90
2022-08-27T05:31:42.284Z,99.90
2022-08-27T05:34:18.685Z,99.90
2022-08-27T05:36:52.076Z,99.90
2022-08-27T05:39:21.568Z,99.90
2022-08-27T05:41:53.928Z,99.90
2022-08-27T05:44:40.515Z,99.90
2022-08-27T05:47:10.589Z,99.90
2022-08-27T05:49:40.701Z,99.90
2022-08-27T05:52:11.718Z,99.90
2022-08-27T05:54:42.105Z,99.90
2022-08-27T05:57:13.135Z,99.90
2022-08-27T05:59:56.461Z,99.90
2022-08-27T06:02:26.448Z,99.90
2022-08-27T06:04:56.704Z,99.90
2022-08-27T06:07:26.053Z,99.90
2022-08-27T06:09:55.379Z,99.90
2022-08-27T06:12:27.145Z,99.90
2022-08-27T06:14:57.969Z,99.90
2022-08-27T06:17:28.065Z,99.90
2022-08-27T06:19:58.015Z,99.90
2022-08-27T06:22:27.419Z,99.90
2022-08-27T06:24:57.473Z,99.90
2022-08-27T06:27:28.264Z,99.90
2022-08-27T06:29:57.851Z,99.90
2022-08-27T06:32:27.457Z,99.90
2022-08-27T06:34:56.885Z,99.90
2022-08-27T06:37:27.546Z,99.90
2022-08-27T06:39:56.925Z,99.90
2022-08-27T06:42:27.805Z,99.90
2022-08-27T06:44:57.449Z,99.90
2022-08-27T06:47:26.885Z,99.90
2022-08-27T06:49:56.494Z,99.90
2022-08-27T06:52:26.366Z,99.90
2022-08-27T06:54:55.868Z,99.90
2022-08-27T06:57:25.248Z,99.90
2022-08-27T06:59:56.441Z,99.90
2022-08-27T07:02:25.844Z,99.90
2022-08-27T07:04:56.475Z,99.90
2022-08-27T07:07:28.007Z,99.90
2022-08-27T07:10:06.087Z,99.90
2022-08-27T07:12:35.477Z,99.90
2022-08-27T07:15:07.289Z,99.90
2022-08-27T07:17:36.982Z,99.90
2022-08-27T07:20:08.288Z,99.90
2022-08-27T07:22:38.030Z,99.90
2022-08-27T07:25:08.324Z,99.90
2022-08-27T07:27:37.496Z,99.90
2022-08-27T07:30:13.362Z,99.90
2022-08-27T07:32:43.041Z,99.90
2022-08-27T07:35:13.206Z,99.90
2022-08-27T07:37:43.420Z,99.90
2022-08-27T07:40:14.005Z,99.90
2022-08-27T07:43:01.574Z,99.90
2022-08-27T07:45:32.597Z,99.90
2022-08-27T07:48:02.701Z,99.90
2022-08-27T07:50:32.177Z,99.90
2022-08-27T07:53:01.761Z,99.90
2022-08-27T07:55:31.348Z,99.90
2022-08-27T07:58:01.354Z,99.90
2022-08-27T08:00:32.257Z,99.90
2022-08-27T08:03:02.868Z,99.90
2022-08-27T08:05:32.271Z,99.90
2022-08-27T08:08:01.715Z,99.90
2022-08-27T08:10:35.338Z,99.90
2022-08-27T08:13:05.679Z,99.90
2022-08-27T08:15:38.092Z,99.90
2022-08-27T08:18:07.541Z,99.90
2022-08-27T08:20:57.072Z,99.90
2022-08-27T08:23:26.678Z,99.90
2022-08-27T08:25:58.045Z,99.90
2022-08-27T08:28:27.993Z,99.90
2022-08-27T08:31:01.753Z,99.90
2022-08-27T08:33:32.183Z,99.90
2022-08-27T08:36:06.634Z,99.90
2022-08-27T08:38:36.364Z,99.90
2022-08-27T08:41:08.549Z,99.90
2022-08-27T08:43:42.390Z,99.90
2022-08-27T08:46:23.772Z,99.90
2022-08-27T08:48:58.720Z,99.90
2022-08-27T08:51:34.542Z,99.90
2022-08-27T08:54:06.456Z,99.90
2022-08-27T08:56:45.341Z,99.90
2022-08-27T08:59:21.110Z,99.90
2022-08-27T09:01:53.311Z,99.90
2022-08-27T09:04:25.160Z,99.90
2022-08-27T09:06:59.869Z,99.90
2022-08-27T09:09:36.423Z,99.90
2022-08-27T09:12:15.644Z,99.90
2022-08-27T09:14:51.260Z,99.90
2022-08-27T09:17:22.691Z,99.90
2022-08-27T09:19:52.601Z,99.90
2022-08-27T09:22:28.733Z,99.90
2022-08-27T09:25:08.249Z,99.90
2022-08-27T09:27:41.888Z,99.90
2022-08-27T09:30:14.898Z,99.90
2022-08-27T09:32:46.441Z,99.90
2022-08-27T09:35:17.317Z,99.90
2022-08-27T09:37:49.546Z,99.90
2022-08-27T09:40:24.857Z,99.90
2022-08-27T09:42:57.740Z,99.90
2022-08-27T09:45:30.122Z,99.90
2022-08-27T09:48:09.651Z,99.90
2022-08-27T09:50:44.017Z,99.90
2022-08-27T09:53:22.146Z,99.90
2022-08-27T09:55:56.577Z,99.90
2022-08-27T09:58:30.122Z,99.90
2022-08-27T10:01:05.696Z,99.90
2022-08-27T10:03:37.056Z,99.90
2022-08-27T10:06:06.843Z,99.90
2022-08-27T10:08:42.692Z,99.90
2022-08-27T10:11:16.859Z,99.90
2022-08-27T10:13:53.760Z,99.90
2022-08-27T10:16:49.032Z,99.90
2022-08-27T10:19:30.923Z,99.90
2022-08-27T10:22:11.665Z,99.90
2022-08-27T10:24:56.037Z,99.90
2022-08-27T10:27:32.943Z,99.90
2022-08-27T10:30:09.761Z,99.90
2022-08-27T10:32:55.459Z,99.90
2022-08-27T10:35:30.333Z,99.90
2022-08-27T10:38:10.943Z,99.90
2022-08-27T10:40:49.742Z,99.90
2022-08-27T10:43:38.224Z,99.90
2022-08-27T10:46:26.945Z,99.90
2022-08-27T10:49:04.901Z,99.90
2022-08-27T10:51:44.107Z,99.90
2022-08-27T10:54:23.921Z,99.90
2022-08-27T10:57:26.245Z,99.90
2022-08-27T11:00:01.916Z,99.90
2022-08-27T11:02:37.747Z,99.40
2022-08-27T11:05:17.330Z,98.00
2022-08-27T11:07:52.843Z,95.70
2022-08-27T11:10:26.108Z,94.30
2022-08-27T11:12:58.385Z,92.80
2022-08-27T11:15:32.153Z,91.40
2022-08-27T11:18:06.328Z,90.50
2022-08-27T11:20:42.394Z,88.30
2022-08-27T11:23:19.093Z,86.30
2022-08-27T11:25:53.258Z,85.20
2022-08-27T11:28:30.008Z,84.00
2022-08-27T11:31:09.355Z,83.30
2022-08-27T11:33:46.036Z,81.20
2022-08-27T11:36:34.388Z,81.30
2022-08-27T11:39:13.290Z,84.90
2022-08-27T11:41:59.892Z,83.40
2022-08-27T11:44:30.813Z,85.70
2022-08-27T11:47:11.948Z,86.30
2022-08-27T11:49:47.739Z,87.50
2022-08-27T11:52:29.325Z,87.10
2022-08-27T11:55:13.349Z,86.30
2022-08-27T11:57:43.490Z,86.00
2022-08-27T12:00:19.201Z,87.40
2022-08-27T12:02:59.935Z,86.70
2022-08-27T12:05:37.931Z,86.30
2022-08-27T12:08:21.254Z,86.20
2022-08-27T12:11:05.245Z,86.20
2022-08-27T12:13:40.851Z,84.70
2022-08-27T12:16:23.835Z,84.50
2022-08-27T12:19:08.958Z,84.00
2022-08-27T12:21:50.199Z,84.10
2022-08-27T12:24:55.793Z,83.10
2022-08-27T12:27:36.257Z,85.80
2022-08-27T12:30:21.385Z,84.10
2022-08-27T12:32:53.480Z,83.20
2022-08-27T12:35:25.053Z,84.70
2022-08-27T12:37:58.416Z,84.50
2022-08-27T12:40:31.895Z,83.40
2022-08-27T12:43:14.068Z,84.10
2022-08-27T12:45:47.504Z,84.10
2022-08-27T12:48:20.677Z,83.10
2022-08-27T12:50:54.935Z,83.80
2022-08-27T12:53:45.969Z,82.50
2022-08-27T12:56:29.638Z,83.00
2022-08-27T12:59:10.958Z,82.80
2022-08-27T13:01:58.009Z,83.70
2022-08-27T13:04:29.917Z,83.50
2022-08-27T13:06:59.755Z,82.70
2022-08-27T13:09:33.096Z,81.50
2022-08-27T13:12:03.936Z,81.70
2022-08-27T13:14:40.418Z,82.20
2022-08-27T13:17:12.720Z,82.60
2022-08-27T13:19:51.337Z,82.30
2022-08-27T13:22:26.213Z,84.20
2022-08-27T13:24:59.905Z,84.20
2022-08-27T13:27:31.081Z,84.70
2022-08-27T13:30:06.577Z,85.30
2022-08-27T13:32:36.288Z,86.00
2022-08-27T13:35:07.896Z,85.50
2022-08-27T13:37:43.089Z,86.30
2022-08-27T13:40:25.522Z,87.50
2022-08-27T13:42:55.421Z,88.10
2022-08-27T13:45:28.378Z,87.30
2022-08-27T13:47:57.893Z,86.90
2022-08-27T13:50:30.346Z,87.40
2022-08-27T13:53:24.524Z,87.10
2022-08-27T13:55:56.432Z,86.70
2022-08-27T13:58:28.561Z,87.10
2022-08-27T14:01:10.742Z,86.90
2022-08-27T14:03:50.274Z,87.60
2022-08-27T14:06:35.425Z,87.90
2022-08-27T14:09:19.929Z,87.30
2022-08-27T14:11:50.774Z,87.10
2022-08-27T14:14:20.670Z,86.20
2022-08-27T14:16:59.745Z,85.80
2022-08-27T14:19:33.374Z,86.00
2022-08-27T14:22:06.946Z,86.00
2022-08-27T14:24:36.414Z,86.30
2022-08-27T14:27:07.105Z,86.20
2022-08-27T14:29:36.730Z,86.50
2022-08-27T14:32:08.730Z,87.00
2022-08-27T14:34:39.052Z,86.80
2022-08-27T14:37:08.632Z,87.10
2022-08-27T14:39:38.042Z,86.70
2022-08-27T14:42:12.043Z,87.80
2022-08-27T14:44:41.573Z,86.60
2022-08-27T14:47:13.064Z,87.50
2022-08-27T14:49:46.280Z,87.00
2022-08-27T14:52:17.376Z,87.30
2022-08-27T14:54:47.707Z,86.50
2022-08-27T14:57:17.086Z,86.40
2022-08-27T14:59:47.270Z,86.20
2022-08-27T15:02:19.384Z,86.00
2022-08-27T15:04:49.090Z,85.50
2022-08-27T15:07:20.043Z,86.10
2022-08-27T15:09:52.397Z,85.80
2022-08-27T15:12:25.624Z,85.60
2022-08-27T15:14:56.609Z,86.20
2022-08-27T15:17:34.393Z,86.40
2022-08-27T15:20:07.078Z,85.60
2022-08-27T15:22:37.998Z,85.50
2022-08-27T15:25:11.301Z,86.20
2022-08-27T15:27:40.860Z,85.00
2022-08-27T15:30:13.989Z,83.80
2022-08-27T15:32:47.199Z,84.20
2022-08-27T15:35:19.202Z,84.60
2022-08-27T15:37:49.014Z,86.00
2022-08-27T15:40:20.468Z,86.60
2022-08-27T15:43:02.492Z,87.60
2022-08-27T15:45:33.498Z,87.40
2022-08-27T15:48:04.944Z,87.70
2022-08-27T15:50:35.867Z,87.70
2022-08-27T15:53:07.524Z,87.80
2022-08-27T15:55:42.852Z,88.00
2022-08-27T15:58:13.495Z,87.20
2022-08-27T16:00:46.718Z,87.20
2022-08-27T16:03:18.488Z,87.70
2022-08-27T16:05:48.822Z,87.20
2022-08-27T16:08:18.673Z,87.90
2022-08-27T16:10:48.013Z,88.50
2022-08-27T16:13:18.537Z,88.80
2022-08-27T16:15:47.925Z,88.30
2022-08-27T16:18:20.210Z,88.40
2022-08-27T16:20:51.557Z,88.90
2022-08-27T16:23:21.552Z,88.50
2022-08-27T16:25:51.064Z,88.80
2022-08-27T16:28:20.972Z,89.10
2022-08-27T16:30:50.508Z,89.40
2022-08-27T16:33:22.558Z,89.30
2022-08-27T16:35:52.836Z,89.60
2022-08-27T16:38:22.365Z,90.30
2022-08-27T16:40:52.489Z,91.00
2022-08-27T16:43:25.311Z,91.30
2022-08-27T16:45:57.019Z,92.00
2022-08-27T16:48:45.881Z,92.50
2022-08-27T16:51:18.208Z,92.90
2022-08-27T16:53:49.796Z,93.80
2022-08-27T16:56:20.708Z,94.10
2022-08-27T16:58:56.437Z,94.30
2022-08-27T17:01:26.524Z,94.70
2022-08-27T17:04:23.905Z,95.20
2022-08-27T17:06:51.807Z,95.60
2022-08-27T17:09:21.664Z,96.10
2022-08-27T17:11:57.229Z,96.40
2022-08-27T17:14:26.782Z,96.80
2022-08-27T17:16:57.196Z,97.30
2022-08-27T17:19:28.437Z,97.60
2022-08-27T17:21:58.444Z,97.80
2022-08-27T17:24:27.829Z,98.30
2022-08-27T17:26:57.784Z,99.10
2022-08-27T17:29:27.721Z,99.20
2022-08-27T17:31:57.213Z,99.50
2022-08-27T17:34:29.009Z,99.90
2022-08-27T17:36:58.800Z,99.90
2022-08-27T17:39:28.784Z,99.90
2022-08-27T17:41:58.668Z,99.90
2022-08-27T17:44:32.346Z,99.90
2022-08-27T17:47:03.644Z,99.90
2022-08-27T17:49:36.139Z,99.90
2022-08-27T17:52:09.976Z,99.90
2022-08-27T17:54:42.762Z,99.90
2022-08-27T17:57:16.805Z,99.90
2022-08-27T17:59:47.000Z,99.90
2022-08-27T18:02:21.560Z,99.90
2022-08-27T18:04:53.179Z,99.90
2022-08-27T18:07:23.046Z,99.90
2022-08-27T18:09:53.305Z,99.90
2022-08-27T18:12:25.337Z,99.90
2022-08-27T18:15:04.679Z,99.90
2022-08-27T18:17:34.113Z,99.90
2022-08-27T18:20:09.713Z,99.90
2022-08-27T18:22:40.883Z,99.90
2022-08-27T18:25:13.463Z,99.90
2022-08-27T18:27:45.644Z,99.90
2022-08-27T18:30:15.445Z,99.90
2022-08-27T18:32:44.937Z,99.90
2022-08-27T18:35:20.024Z,99.90
2022-08-27T18:37:50.262Z,99.90
2022-08-27T18:40:22.161Z,99.90
2022-08-27T18:42:52.714Z,99.90
2022-08-27T18:45:28.520Z,99.90
2022-08-27T18:48:00.942Z,99.90
2022-08-27T18:50:31.817Z,99.90
2022-08-27T18:53:02.165Z,99.90
2022-08-27T18:55:31.639Z,99.90
2022-08-27T18:58:01.203Z,99.90
2022-08-27T19:00:31.187Z,99.90
2022-08-27T19:03:02.009Z,99.90
2022-08-27T19:05:33.714Z,99.90
2022-08-27T19:08:06.096Z,99.90
2022-08-27T19:10:36.189Z,99.90
2022-08-27T19:13:05.639Z,99.90
2022-08-27T19:15:35.054Z,99.90
2022-08-27T19:18:04.994Z,99.90
2022-08-27T19:20:36.169Z,99.90
2022-08-27T19:23:05.927Z,99.90
2022-08-27T19:25:35.813Z,99.90
2022-08-27T19:28:05.780Z,99.90
2022-08-27T19:30:35.493Z,99.90
2022-08-27T19:33:05.126Z,99.90
2022-08-27T19:35:37.415Z,99.90
2022-08-27T19:38:08.752Z,99.90
2022-08-27T19:40:39.017Z,99.90
2022-08-27T19:43:09.459Z,99.90
2022-08-27T19:45:40.254Z,99.90
2022-08-27T19:48:12.667Z,99.90
2022-08-27T19:50:45.028Z,99.90
2022-08-27T19:53:15.263Z,99.90
2022-08-27T19:55:46.286Z,99.90
2022-08-27T19:58:19.760Z,99.90
2022-08-27T20:00:49.622Z,99.90
2022-08-27T20:03:20.042Z,99.90
2022-08-27T20:05:53.118Z,99.90
2022-08-27T20:08:23.374Z,99.90
2022-08-27T20:10:52.778Z,99.90
2022-08-27T20:13:22.668Z,99.90
2022-08-27T20:15:52.429Z,99.90
2022-08-27T20:18:23.354Z,99.90
2022-08-27T20:20:54.111Z,99.90
2022-08-27T20:23:23.425Z,99.90
2022-08-27T20:26:00.471Z,99.90
2022-08-27T20:28:46.052Z,99.90
2022-08-27T20:31:16.071Z,99.90
2022-08-27T20:33:45.806Z,99.90
2022-08-27T20:36:16.694Z,99.90
2022-08-27T20:38:46.762Z,99.90
2022-08-27T20:41:16.286Z,99.90
2022-08-27T20:43:45.604Z,99.90
2022-08-27T20:46:16.660Z,99.90
2022-08-27T20:48:45.739Z,99.90
2022-08-27T20:51:16.934Z,99.90
2022-08-27T20:53:46.544Z,99.90
2022-08-27T20:56:16.021Z,99.90
2022-08-27T20:59:02.845Z,99.90
2022-08-27T21:01:32.806Z,99.90
2022-08-27T21:04:02.354Z,99.90
2022-08-27T21:06:33.647Z,99.90
2022-08-27T21:09:03.934Z,99.90
2022-08-27T21:11:33.602Z,99.90
2022-08-27T21:14:03.132Z,99.90
2022-08-27T21:16:33.154Z,99.90
2022-08-27T21:19:02.653Z,99.90
2022-08-27T21:21:33.568Z,99.90
2022-08-27T21:24:03.462Z,99.90
2022-08-27T21:26:32.913Z,99.90
2022-08-27T21:29:02.425Z,99.90
2022-08-27T21:31:32.708Z,99.90
2022-08-27T21:34:02.119Z,99.90
2022-08-27T21:36:33.314Z,99.90
2022-08-27T21:39:03.078Z,99.90
2022-08-27T21:41:37.174Z,99.90
2022-08-27T21:44:07.394Z,99.90
2022-08-27T21:46:37.314Z,99.90
2022-08-27T21:49:07.015Z,99.90
2022-08-27T21:51:38.448Z,99.90
2022-08-27T21:54:07.816Z,99.90
2022-08-27T21:56:38.631Z,99.90
2022-08-27T21:59:08.957Z,99.90
2022-08-27T22:01:39.565Z,99.90
2022-08-27T22:04:09.214Z,99.90
2022-08-27T22:06:40.037Z,99.90
2022-08-27T22:09:09.642Z,99.90
2022-08-27T22:11:39.029Z,99.90
2022-08-27T22:14:08.460Z,99.90
2022-08-27T22:16:41.748Z,99.90
2022-08-27T22:19:11.348Z,99.90
2022-08-27T22:21:42.302Z,99.90
2022-08-27T22:24:12.976Z,99.90
2022-08-27T22:26:42.476Z,99.90
2022-08-27T22:29:11.820Z,99.90
2022-08-27T22:31:41.991Z,99.90
2022-08-27T22:34:13.361Z,99.90
2022-08-27T22:36:47.996Z,99.90
2022-08-27T22:39:17.534Z,99.90
2022-08-27T22:41:49.413Z,99.90
2022-08-27T22:44:19.060Z,99.90
2022-08-27T22:46:49.124Z,99.90
2022-08-27T22:49:18.703Z,99.90
2022-08-27T22:51:50.565Z,99.90
2022-08-27T22:54:20.948Z,99.90
2022-08-27T22:56:50.260Z,99.90
2022-08-27T22:59:19.881Z,99.90
2022-08-27T23:01:49.657Z,99.90
2022-08-27T23:04:19.840Z,99.90
2022-08-27T23:06:51.353Z,99.90
2022-08-27T23:09:21.091Z,99.90
2022-08-27T23:11:50.930Z,99.90
2022-08-27T23:14:20.461Z,99.90
2022-08-27T23:16:50.144Z,99.90
2022-08-27T23:19:20.000Z,99.90
2022-08-27T23:21:51.134Z,99.90
2022-08-27T23:24:21.500Z,99.90
2022-08-27T23:27:08.037Z,99.90
2022-08-27T23:29:38.297Z,99.90
2022-08-27T23:32:08.007Z,99.90
2022-08-27T23:34:37.340Z,99.90
2022-08-27T23:37:09.035Z,99.90
2022-08-27T23:39:38.370Z,99.90
2022-08-27T23:42:08.785Z,99.90
2022-08-27T23:44:38.474Z,99.90
2022-08-27T23:47:07.957Z,99.90
2022-08-27T23:49:39.210Z,99.90
2022-08-27T23:52:09.964Z,99.90
2022-08-27T23:54:40.549Z,99.90
2022-08-27T23:57:10.084Z,99.90
2022-08-27T23:59:39.834Z,99.90
